createdAt,value
2018-08-12T09:59:42.039Z,1013.29
2018-08-12T10:00:41.962Z,1013.24
2018-08-12T10:01:41.872Z,1013.20
2018-08-12T10:02:41.790Z,1013.16
2018-08-12T10:03:41.701Z,1013.15
2018-08-12T10:04:41.622Z,1013.21
2018-08-12T10:05:41.575Z,1013.19
2018-08-12T10:06:41.453Z,1013.16
2018-08-12T10:07:41.374Z,1013.19
2018-08-12T10:08:41.296Z,1013.17
2018-08-12T10:09:41.206Z,1012.99
2018-08-12T10:10:41.128Z,1013.10
2018-08-12T10:11:41.050Z,1012.95
2018-08-12T10:12:40.957Z,1012.91
2018-08-12T10:13:40.879Z,1012.93
2018-08-12T10:14:40.800Z,1012.93
2018-08-12T10:15:40.809Z,1013.03
2018-08-12T10:16:40.632Z,1013.01
2018-08-12T10:17:40.542Z,1013.00
2018-08-12T10:18:40.464Z,1012.94
2018-08-12T10:19:40.384Z,1012.88
2018-08-12T10:20:40.294Z,1012.82
2018-08-12T10:21:40.288Z,1012.80
2018-08-12T10:22:40.138Z,1012.65
2018-08-12T10:23:40.047Z,1012.78
2018-08-12T10:24:39.967Z,1012.78
2018-08-12T10:25:39.890Z,1012.82
2018-08-12T10:26:39.801Z,1012.78
2018-08-12T10:27:39.721Z,1012.78
2018-08-12T10:28:39.643Z,1012.72
2018-08-12T10:29:39.565Z,1012.66
2018-08-12T10:30:39.473Z,1012.73
2018-08-12T10:31:39.395Z,1012.75
2018-08-12T10:32:39.317Z,1012.68
2018-08-12T10:33:39.239Z,1012.65
2018-08-12T10:34:39.149Z,1012.65
2018-08-12T10:35:39.070Z,1012.60
2018-08-12T10:36:38.992Z,1012.58
2018-08-12T10:37:39.164Z,1012.57
2018-08-12T10:38:38.835Z,1012.54
2018-08-12T10:39:38.757Z,1012.47
2018-08-12T10:40:38.667Z,1012.44
2018-08-12T10:41:38.600Z,1012.48
2018-08-12T10:42:38.509Z,1012.50
2018-08-12T10:43:38.430Z,1012.47
2018-08-12T10:44:38.352Z,1012.51
2018-08-12T10:45:38.274Z,1012.44
2018-08-12T10:46:38.198Z,1012.40
2018-08-12T10:47:38.117Z,1012.36
2018-08-12T10:48:38.038Z,1012.41
2018-08-12T10:49:37.950Z,1012.36
2018-08-12T10:50:37.871Z,1012.34
2018-08-12T10:51:37.795Z,1012.42
2018-08-12T10:52:37.713Z,1012.42
2018-08-12T10:53:37.636Z,1012.40
2018-08-12T10:54:37.557Z,1012.43
2018-08-12T10:55:37.466Z,1012.40
2018-08-12T10:56:37.399Z,1012.40
2018-08-12T10:57:37.309Z,1012.32
2018-08-12T10:58:37.230Z,1012.33
2018-08-12T10:59:37.153Z,1012.36
2018-08-12T11:00:37.062Z,1012.39
2018-08-12T11:01:36.984Z,1012.39
2018-08-12T11:02:36.905Z,1012.39
2018-08-12T11:03:36.827Z,1012.37
2018-08-12T11:04:36.737Z,1012.37
2018-08-12T11:05:36.657Z,1012.35
2018-08-12T11:06:36.579Z,1012.29
2018-08-12T11:07:36.530Z,1012.24
2018-08-12T11:08:36.423Z,1012.25
2018-08-12T11:09:36.332Z,1012.28
2018-08-12T11:10:36.254Z,1012.25
2018-08-12T11:11:36.177Z,1012.23
2018-08-12T11:12:36.112Z,1012.22
2018-08-12T11:13:36.022Z,1012.23
2018-08-12T11:14:35.940Z,1012.16
2018-08-12T11:15:35.851Z,1012.20
2018-08-12T11:16:35.771Z,1012.20
2018-08-12T11:17:35.692Z,1012.18
2018-08-12T11:18:35.616Z,1012.20
2018-08-12T11:19:35.538Z,1012.21
2018-08-12T11:20:35.537Z,1012.19
2018-08-12T11:21:35.380Z,1012.15
2018-08-12T11:22:35.301Z,1012.09
2018-08-12T11:23:35.210Z,1012.09
2018-08-12T11:24:35.133Z,1012.08
2018-08-12T11:25:35.055Z,1012.06
2018-08-12T11:26:34.976Z,1012.09
2018-08-12T11:27:34.907Z,1012.08
2018-08-12T11:28:34.870Z,1012.05
2018-08-12T11:29:34.741Z,1011.99
2018-08-12T11:30:34.662Z,1011.94
2018-08-12T11:31:34.584Z,1011.89
2018-08-12T11:32:34.494Z,1011.88
2018-08-12T11:33:34.415Z,1011.90
2018-08-12T11:34:34.336Z,1011.86
2018-08-12T11:35:34.258Z,1011.85
